Abadan Airport


Codes: OIAA/ABD
Name: Abadan Airport
City: Abadan
Country: Iran
Elevation: 10 ft.
Wikipedia:

Photos at Abadan Airport


   Photos courtesy of SpottingLog. You can add your own sightings and photos by signing up for a free trial today.



No photos found.

Weather at Abadan Airport


Time (UTC)DescriptionTempratureWindCloud coverageVisibilityPressureHumidity
16-Jun-2024 03:00Clear Sky35°C2 mph, S0%10000m999hPa17%
16-Jun-2024 06:00Clear Sky39°C2 mph, SW0%10000m1000hPa11%
16-Jun-2024 09:00Clear Sky46°C2 mph, E0%10000m1000hPa7%
16-Jun-2024 12:00Clear Sky47°C2 mph, E0%10000m998hPa5%
16-Jun-2024 15:00Clear Sky42°C16 mph, SE0%10000m999hPa13%
16-Jun-2024 18:00Clear Sky38°C9 mph, S0%10000m1000hPa19%
16-Jun-2024 21:00Clear Sky37°C9 mph, SW0%10000m1000hPa19%
17-Jun-2024 00:00Clear Sky36°C7 mph, S0%10000m1000hPa17%
17-Jun-2024 03:00Clear Sky36°C7 mph, S0%10000m1002hPa17%
17-Jun-2024 06:00Clear Sky42°C2 mph, S0%10000m1002hPa10%
17-Jun-2024 09:00Clear Sky47°C2 mph, N0%10000m1001hPa5%
17-Jun-2024 12:00Clear Sky49°C7 mph, N0%10000m999hPa4%
17-Jun-2024 15:00Clear Sky48°C9 mph, N0%10000m999hPa4%
17-Jun-2024 18:00Clear Sky41°C2 mph, E0%10000m1000hPa9%
17-Jun-2024 21:00Clear Sky38°C4 mph, NW0%10000m1000hPa7%
18-Jun-2024 00:00Clear Sky37°C9 mph, NW0%10000m1000hPa6%
18-Jun-2024 03:00Clear Sky37°C2 mph, NW0%10000m1001hPa6%
18-Jun-2024 06:00Clear Sky45°C9 mph, W0%10000m1001hPa3%
18-Jun-2024 09:00Clear Sky49°C9 mph, W0%10000m1000hPa2%
18-Jun-2024 12:00Clear Sky50°C7 mph, W0%10000m998hPa1%
18-Jun-2024 15:00Clear Sky45°C11 mph, S0%10000m998hPa6%
18-Jun-2024 18:00Clear Sky40°C9 mph, S0%10000m1000hPa12%
18-Jun-2024 21:00Clear Sky39°C9 mph, NW0%10000m1000hPa5%
19-Jun-2024 00:00Clear Sky37°C11 mph, NW0%10000m999hPa7%
19-Jun-2024 03:00Clear Sky37°C7 mph, N0%10000m1000hPa7%
19-Jun-2024 06:00Clear Sky46°C13 mph, NW0%10000m1001hPa4%
19-Jun-2024 09:00Clear Sky50°C16 mph, NW0%10000m999hPa2%
19-Jun-2024 12:00Clear Sky51°C20 mph, NW0%10000m997hPa1%
19-Jun-2024 15:00Clear Sky48°C25 mph, NW0%10000m997hPa2%
19-Jun-2024 18:00Clear Sky43°C20 mph, NW0%10000m998hPa3%
19-Jun-2024 21:00Clear Sky40°C16 mph, NW0%10000m997hPa4%
20-Jun-2024 00:00Clear Sky37°C13 mph, NW0%10000m996hPa6%
20-Jun-2024 03:00Clear Sky36°C9 mph, NW0%10000m997hPa8%
20-Jun-2024 06:00Clear Sky43°C9 mph, NW0%10000m997hPa5%
20-Jun-2024 09:00Clear Sky49°C7 mph, NW0%10000m996hPa2%
20-Jun-2024 12:00Clear Sky50°C7 mph, N0%10000m994hPa2%
20-Jun-2024 15:00Clear Sky48°C9 mph, N0%10000m994hPa2%
20-Jun-2024 18:00Clear Sky44°C9 mph, NW0%10000m995hPa3%
20-Jun-2024 21:00Clear Sky41°C18 mph, NW0%10000m995hPa6%
21-Jun-2024 00:00Clear Sky38°C11 mph, NW0%10000m995hPa7%